Time;durP1;ratioP1;P1;durP2;ratioP2;P2;SDS_P1;SDS_P2;PMS_P1;PMS_P2;Temp;Humidity;BMP_temperature;BMP_pressure;BME280_temperature;BME280_humidity;BME280_pressure;Samples;Min_cycle;Max_cycle;Signal;HPM_P1;HPM_P2
2022/08/23 00:00:22;;;;;;;;;;;;;;;16.47;92.82;100524.98;1597675;88;20180;-74
2022/08/23 00:02:50;;;;;;;;;;;;;;;16.46;92.80;100527.89;1603910;88;20189;-74
2022/08/23 00:05:16;;;;;;;;;;;;;;;16.46;92.81;100528.72;1607847;88;21082;-74
2022/08/23 00:07:42;;;;;;;;;;;;;;;16.44;92.81;100522.70;1606524;89;20322;-74
2022/08/23 00:10:09;;;;;;;;;;;;;;;16.46;92.84;100526.03;1607731;88;20160;-74
2022/08/23 00:12:35;;;;;;;;;;;;;;;16.48;92.86;100526.64;1607688;89;20474;-74
2022/08/23 00:15:01;;;;;;;;;;;;;;;16.48;92.83;100523.95;1607913;88;20171;-74
2022/08/23 00:17:27;;;;;;;;;;;;;;;16.49;92.85;100526.13;1606889;88;20961;-74
2022/08/23 00:19:53;;;;;;;;;;;;;;;16.50;92.85;100524.56;1598980;88;20291;-73
2022/08/23 00:22:19;;;;;;;;;;;;;;;16.52;92.86;100519.50;1609348;88;20230;-74
2022/08/23 00:24:45;;;;;;;;;;;;;;;16.53;92.86;100520.66;1608272;89;20219;-74
2022/08/23 00:27:12;;;;;;;;;;;;;;;16.55;92.86;100517.73;1608296;86;20255;-74
2022/08/23 00:29:42;;;;;;;;;;;;;;;16.56;92.85;100519.44;1637349;86;21927;-74
2022/08/23 00:32:10;;;;;;;;;;;;;;;16.57;92.84;100518.41;1638354;86;20479;-74
2022/08/23 00:34:35;;;;;;;;;;;;;;;16.57;92.84;100511.13;1637400;87;20457;-74
2022/08/23 00:37:02;;;;;;;;;;;;;;;16.57;92.83;100508.98;1635284;86;20184;-74
2022/08/23 00:39:28;;;;;;;;;;;;;;;16.56;92.82;100509.50;1637333;86;20143;-74
2022/08/23 00:41:59;;;;;;;;;;;;;;;16.57;92.82;100517.06;1636744;87;21159;-74
2022/08/23 00:50:10;;;;;;;;;;;;;;;16.57;92.82;100516.52;1637191;86;20154;-74
2022/08/23 00:52:39;;;;;;;;;;;;;;;16.57;92.80;100515.72;1637370;86;20170;-74
2022/08/23 00:55:05;;;;;;;;;;;;;;;16.57;92.78;100522.45;1637385;87;21150;-74
2022/08/23 00:57:31;;;;;;;;;;;;;;;16.58;92.78;100520.05;1636577;87;20316;-74
2022/08/23 00:59:57;;;;;;;;;;;;;;;16.59;92.80;100516.33;1637191;87;20219;-74
2022/08/23 01:02:23;;;;;;;;;;;;;;;16.59;92.79;100509.59;1636915;87;20176;-74
2022/08/23 01:04:53;;;;;;;;;;;;;;;16.60;92.79;100507.22;1637417;87;20221;-74
2022/08/23 01:07:28;;;;;;;;;;;;;;;16.61;92.76;100507.52;1635157;87;21192;-74
2022/08/23 01:09:57;;;;;;;;;;;;;;;16.61;92.76;100510.20;1625809;86;37396;-74
2022/08/23 01:12:26;;;;;;;;;;;;;;;16.61;92.76;100511.55;1637103;86;20154;-74
2022/08/23 01:14:58;;;;;;;;;;;;;;;16.61;92.74;100508.34;1637301;87;20203;-74
2022/08/23 01:17:36;;;;;;;;;;;;;;;16.61;92.71;100502.13;1637104;86;20177;-74
2022/08/23 01:20:11;;;;;;;;;;;;;;;16.62;92.69;100502.45;1637240;87;23045;-74
2022/08/23 01:22:58;;;;;;;;;;;;;;;16.62;92.68;100497.06;1637115;86;20142;-74
2022/08/23 01:25:25;;;;;;;;;;;;;;;16.61;92.67;100503.47;1637323;87;20193;-74
2022/08/23 01:27:51;;;;;;;;;;;;;;;16.60;92.67;100500.49;1637306;86;20210;-74
2022/08/23 01:30:20;;;;;;;;;;;;;;;16.59;92.67;100498.83;1637875;86;20208;-74
2022/08/23 01:32:52;;;;;;;;;;;;;;;16.58;92.65;100492.61;1637294;87;21147;-75
2022/08/23 01:35:19;;;;;;;;;;;;;;;16.57;92.64;100495.52;1636539;86;20142;-74
2022/08/23 01:37:45;;;;;;;;;;;;;;;16.56;92.61;100497.89;1637353;86;20174;-75
2022/08/23 01:40:11;;;;;;;;;;;;;;;16.56;92.62;100492.51;1637481;87;20542;-75
2022/08/23 01:42:40;;;;;;;;;;;;;;;16.55;92.61;100493.50;1637325;87;20170;-74
2022/08/23 01:45:06;;;;;;;;;;;;;;;16.55;92.60;100497.55;1637305;86;20627;-74
2022/08/23 01:47:32;;;;;;;;;;;;;;;16.54;92.59;100497.25;1637360;86;20150;-74
2022/08/23 01:49:58;;;;;;;;;;;;;;;16.55;92.60;100498.89;1637200;87;20824;-74
2022/08/23 01:52:24;;;;;;;;;;;;;;;16.56;92.58;100499.24;1638920;86;20206;-74
2022/08/23 01:54:50;;;;;;;;;;;;;;;16.54;92.58;100497.25;1637307;86;20164;-74
2022/08/23 01:57:16;;;;;;;;;;;;;;;16.54;92.58;100502.64;1637164;87;21178;-74
2022/08/23 01:59:42;;;;;;;;;;;;;;;16.54;92.61;100499.95;1637008;86;20209;-74
2022/08/23 02:02:08;;;;;;;;;;;;;;;16.53;92.58;100500.97;1637534;87;20733;-74
2022/08/23 02:04:34;;;;;;;;;;;;;;;16.53;92.58;100500.97;1637547;87;20199;-74
2022/08/23 02:06:59;;;;;;;;;;;;;;;16.54;92.59;100505.33;1637243;86;20172;-74
2022/08/23 02:09:25;;;;;;;;;;;;;;;16.54;92.58;100506.68;1635384;87;21161;-74
2022/08/23 02:11:51;;;;;;;;;;;;;;;16.53;92.57;100506.36;1625209;87;20219;-74
2022/08/23 02:14:19;;;;;;;;;;;;;;;16.52;92.57;100499.30;1636656;87;20212;-74
2022/08/23 02:16:47;;;;;;;;;;;;;;;16.51;92.56;100503.86;1637235;87;20194;-74
2022/08/23 02:19:13;;;;;;;;;;;;;;;16.52;92.56;100507.38;1636707;87;20181;-75
2022/08/23 02:21:40;;;;;;;;;;;;;;;16.53;92.56;100505.02;1637356;87;21157;-74
2022/08/23 02:24:09;;;;;;;;;;;;;;;16.52;92.56;100506.03;1642333;86;20497;-74
2022/08/23 02:26:36;;;;;;;;;;;;;;;16.53;92.56;100511.74;1636711;87;20183;-74
2022/08/23 02:29:02;;;;;;;;;;;;;;;16.54;92.58;100514.75;1643281;86;20169;-74
2022/08/23 02:31:28;;;;;;;;;;;;;;;16.56;92.57;100519.44;1637905;86;20187;-74
2022/08/23 02:33:54;;;;;;;;;;;;;;;16.56;92.56;100507.32;1637789;87;21220;-74
2022/08/23 02:36:20;;;;;;;;;;;;;;;16.56;92.58;100510.84;1642443;86;20204;-74
2022/08/23 02:38:46;;;;;;;;;;;;;;;16.55;92.57;100508.31;1637720;87;20752;-75
2022/08/23 02:41:11;;;;;;;;;;;;;;;16.55;92.59;100512.35;1637875;87;20200;-74
2022/08/23 02:43:37;;;;;;;;;;;;;;;16.55;92.60;100515.88;1636692;87;20180;-74
2022/08/23 02:46:05;;;;;;;;;;;;;;;16.57;92.56;100521.11;1622671;87;21885;-74
2022/08/23 02:48:33;;;;;;;;;;;;;;;16.57;92.59;100517.06;1637694;86;20252;-74
2022/08/23 02:51:02;;;;;;;;;;;;;;;16.55;92.62;100525.30;1624821;86;20158;-74
2022/08/23 02:53:28;;;;;;;;;;;;;;;16.54;92.59;100522.29;1654882;85;20308;-74
2022/08/23 02:55:54;;;;;;;;;;;;;;;16.54;92.59;100524.98;1657563;85;20164;-74
2022/08/23 02:58:20;;;;;;;;;;;;;;;16.55;92.59;100523.95;1651595;85;20888;-74
2022/08/23 03:00:47;;;;;;;;;;;;;;;16.54;92.60;100514.75;1656745;85;20193;-74
2022/08/23 03:03:14;;;;;;;;;;;;;;;16.53;92.58;100522.00;1647661;85;20152;-74
2022/08/23 03:05:40;;;;;;;;;;;;;;;16.53;92.59;100519.82;1655073;85;20204;-74
2022/08/23 03:08:07;;;;;;;;;;;;;;;16.53;92.58;100517.12;1652092;85;20174;-74
2022/08/23 03:10:33;;;;;;;;;;;;;;;16.50;92.58;100520.52;1651868;85;21166;-74
2022/08/23 03:12:58;;;;;;;;;;;;;;;16.50;92.60;100523.22;1657205;85;20211;-74
2022/08/23 03:15:24;;;;;;;;;;;;;;;16.54;92.61;100524.18;1651634;85;20703;-74
2022/08/23 03:17:50;;;;;;;;;;;;;;;16.54;92.62;100524.18;1652241;85;20218;-74
2022/08/23 03:20:16;;;;;;;;;;;;;;;16.54;92.63;100529.56;1648899;85;20190;-74
2022/08/23 03:22:42;;;;;;;;;;;;;;;16.52;92.63;100522.19;1654495;85;21844;-74
2022/08/23 03:25:08;;;;;;;;;;;;;;;16.47;92.61;100516.90;1658485;85;20372;-74
2022/08/23 03:27:34;;;;;;;;;;;;;;;16.44;92.63;100517.31;1653042;85;20187;-74
2022/08/23 03:30:00;;;;;;;;;;;;;;;16.43;92.62;100512.95;1653641;85;20180;-74
2022/08/23 03:32:25;;;;;;;;;;;;;;;16.45;92.62;100523.53;1658819;86;20190;-74
2022/08/23 03:34:52;;;;;;;;;;;;;;;16.46;92.63;100520.65;1653936;86;21017;-74
2022/08/23 03:37:18;;;;;;;;;;;;;;;16.47;92.65;100527.67;1642390;86;20160;-74
2022/08/23 03:39:44;;;;;;;;;;;;;;;16.47;92.66;100522.28;1643235;86;20159;-75
2022/08/23 03:42:11;;;;;;;;;;;;;;;16.47;92.67;100523.62;1642708;86;20195;-74
2022/08/23 03:44:36;;;;;;;;;;;;;;;16.45;92.68;100521.67;1643465;86;20769;-74
2022/08/23 03:47:04;;;;;;;;;;;;;;;16.43;92.67;100526.41;1643070;86;21039;-74
2022/08/23 03:49:31;;;;;;;;;;;;;;;16.42;92.66;100527.47;1643185;86;20450;-74
2022/08/23 03:51:57;;;;;;;;;;;;;;;16.42;92.67;100532.02;1643295;86;20163;-74
2022/08/23 03:54:23;;;;;;;;;;;;;;;16.42;92.68;100530.16;1643164;86;20164;-74
2022/08/23 03:56:54;;;;;;;;;;;;;;;16.41;92.70;100528.50;1643328;86;20187;-74
2022/08/23 03:59:20;;;;;;;;;;;;;;;16.41;92.73;100525.80;1642984;86;21042;-74
2022/08/23 04:01:47;;;;;;;;;;;;;;;16.38;92.70;100528.91;1643145;86;20206;-74
2022/08/23 04:04:13;;;;;;;;;;;;;;;16.37;92.74;100532.63;1640353;86;20200;-74
2022/08/23 04:06:39;;;;;;;;;;;;;;;16.38;92.77;100531.60;1643320;86;20296;-74
2022/08/23 04:09:05;;;;;;;;;;;;;;;16.38;92.73;100527.56;1642986;86;20182;-74
2022/08/23 04:11:31;;;;;;;;;;;;;;;16.38;92.76;100523.53;1643320;86;21163;-74
2022/08/23 04:13:57;;;;;;;;;;;;;;;16.38;92.78;100524.87;1643124;86;20245;-74
2022/08/23 04:16:23;;;;;;;;;;;;;;;16.38;92.76;100524.87;1642972;86;20533;-74
2022/08/23 04:18:49;;;;;;;;;;;;;;;16.41;92.76;100526.31;1643347;86;20198;-74
2022/08/23 04:21:17;;;;;;;;;;;;;;;16.41;92.76;100521.77;1648698;86;20167;-75
2022/08/23 04:23:43;;;;;;;;;;;;;;;16.43;92.77;100526.41;1655218;86;21115;-74
2022/08/23 04:26:09;;;;;;;;;;;;;;;16.45;92.77;100528.41;1642970;86;20207;-74
2022/08/23 04:28:35;;;;;;;;;;;;;;;16.47;92.77;100522.28;1641720;86;20249;-74
2022/08/23 04:31:02;;;;;;;;;;;;;;;16.49;92.79;100525.63;1626184;86;20194;-74
2022/08/23 04:33:30;;;;;;;;;;;;;;;16.51;92.80;100529.44;1626461;87;20183;-74
2022/08/23 04:35:57;;;;;;;;;;;;;;;16.54;92.82;100533.60;1623773;87;21823;-74
2022/08/23 04:38:24;;;;;;;;;;;;;;;16.54;92.83;100537.09;1624407;87;20483;-74
2022/08/23 04:43:34;;;;;;;;;;;;;;;16.59;92.82;100541.91;1628086;87;20226;-75
2022/08/23 04:46:00;;;;;;;;;;;;;;;16.61;92.81;100538.48;1619042;87;20274;-74
2022/08/23 04:48:26;;;;;;;;;;;;;;;16.63;92.80;100541.81;1620372;87;21979;-74
2022/08/23 04:50:52;;;;;;;;;;;;;;;16.64;92.79;100540.78;1620217;87;20151;-74
2022/08/23 04:53:18;;;;;;;;;;;;;;;16.66;92.83;100546.27;1624889;87;20249;-74
2022/08/23 04:55:44;;;;;;;;;;;;;;;16.68;92.83;100545.53;1628915;87;20353;-74
2022/08/23 04:58:10;;;;;;;;;;;;;;;16.70;92.82;100539.95;1626185;87;20170;-74
2022/08/23 05:00:36;;;;;;;;;;;;;;;16.72;92.80;100538.70;1625373;87;21170;-74
2022/08/23 05:03:01;;;;;;;;;;;;;;;16.74;92.82;100539.86;1641002;86;20883;-74
2022/08/23 05:05:27;;;;;;;;;;;;;;;16.76;92.80;100544.51;1626705;86;20215;-75
2022/08/23 05:07:54;;;;;;;;;;;;;;;16.79;92.81;100546.78;1623753;87;20164;-75
2022/08/23 05:10:20;;;;;;;;;;;;;;;16.81;92.81;100548.27;1638633;87;20174;-74
2022/08/23 05:12:47;;;;;;;;;;;;;;;16.83;92.82;100551.56;1633333;87;21170;-74
2022/08/23 05:15:13;;;;;;;;;;;;;;;16.85;92.83;100549.48;1618729;87;20204;-74
2022/08/23 05:17:39;;;;;;;;;;;;;;;16.86;92.81;100543.58;1621421;87;20278;-74
2022/08/23 05:20:06;;;;;;;;;;;;;;;16.88;92.80;100546.91;1634240;87;20190;-74
2022/08/23 05:22:33;;;;;;;;;;;;;;;16.88;92.79;100540.17;1617935;87;20192;-74
2022/08/23 05:24:59;;;;;;;;;;;;;;;16.89;92.81;100539.95;1628334;86;21855;-74
2022/08/23 05:27:25;;;;;;;;;;;;;;;16.91;92.81;100541.94;1621475;87;20229;-74
2022/08/23 05:29:54;;;;;;;;;;;;;;;16.92;92.81;100545.47;1647200;85;20163;-74
2022/08/23 05:32:21;;;;;;;;;;;;;;;16.94;92.82;100558.20;1649951;86;20497;-74
2022/08/23 05:34:47;;;;;;;;;;;;;;;16.97;92.84;100557.77;1645102;86;20171;-74
2022/08/23 05:37:14;;;;;;;;;;;;;;;17.01;92.85;100564.41;1631697;86;21075;-74
2022/08/23 05:39:39;;;;;;;;;;;;;;;17.06;92.88;100574.58;1658491;86;20156;-74
2022/08/23 05:42:07;;;;;;;;;;;;;;;17.08;92.88;100571.14;1647693;86;20509;-74
2022/08/23 05:44:32;;;;;;;;;;;;;;;17.13;92.87;100572.20;1652994;86;20170;-74
2022/08/23 05:46:58;;;;;;;;;;;;;;;17.17;92.89;100574.77;1643545;86;20182;-74
2022/08/23 05:49:24;;;;;;;;;;;;;;;17.21;92.88;100580.05;1654111;86;21234;-74
2022/08/23 05:51:50;;;;;;;;;;;;;;;17.25;92.88;100583.16;1642804;86;20207;-74
2022/08/23 05:54:16;;;;;;;;;;;;;;;17.23;92.86;100590.13;1655880;86;20219;-74
2022/08/23 05:56:42;;;;;;;;;;;;;;;17.26;92.87;100589.70;1643150;86;20619;-74
2022/08/23 05:59:11;;;;;;;;;;;;;;;17.33;92.88;100589.17;1642901;86;20182;-74
2022/08/23 06:01:38;;;;;;;;;;;;;;;17.33;92.81;100592.39;1638444;86;21915;-74
2022/08/23 06:04:06;;;;;;;;;;;;;;;17.30;92.81;100591.45;1643263;86;20460;-74
2022/08/23 06:06:33;;;;;;;;;;;;;;;17.31;92.81;100600.67;1642639;86;20228;-75
2022/08/23 06:09:00;;;;;;;;;;;;;;;17.35;92.81;100592.48;1644114;86;20562;-74
2022/08/23 06:11:27;;;;;;;;;;;;;;;17.35;92.81;100587.09;1643250;86;20210;-74
2022/08/23 06:13:55;;;;;;;;;;;;;;;17.35;92.80;100579.00;1644712;86;21238;-74
2022/08/23 06:16:29;;;;;;;;;;;;;;;17.34;92.79;100584.10;1650494;86;20202;-74
2022/08/23 06:18:56;;;;;;;;;;;;;;;17.36;92.79;100579.31;1646691;86;20166;-75
2022/08/23 06:21:22;;;;;;;;;;;;;;;17.38;92.77;100577.23;1657469;86;20158;-74
2022/08/23 06:23:48;;;;;;;;;;;;;;;17.40;92.75;100573.81;1665880;86;20149;-74
2022/08/23 06:26:17;;;;;;;;;;;;;;;17.44;92.75;100566.97;1631428;86;21861;-74
2022/08/23 06:28:48;;;;;;;;;;;;;;;17.48;92.75;100570.08;1654988;86;20177;-74
2022/08/23 06:31:14;;;;;;;;;;;;;;;17.53;92.77;100577.00;1640569;86;20187;-74
2022/08/23 06:33:40;;;;;;;;;;;;;;;17.59;92.76;100576.17;1614253;87;20162;-74
2022/08/23 06:36:09;;;;;;;;;;;;;;;17.63;92.73;100580.11;1613154;87;20169;-74
2022/08/23 06:38:35;;;;;;;;;;;;;;;17.67;92.71;100583.22;1614778;87;21212;-74
2022/08/23 06:41:04;;;;;;;;;;;;;;;17.67;92.71;100577.83;1611414;87;20269;-74
2022/08/23 06:43:30;;;;;;;;;;;;;;;17.68;92.69;100586.23;1624036;87;20152;-74
2022/08/23 06:46:12;;;;;;;;;;;;;;;17.68;92.69;100582.19;1615075;87;20219;-74
2022/08/23 06:48:38;;;;;;;;;;;;;;;17.68;92.69;100582.19;1617306;87;20165;-74
2022/08/23 06:51:24;;;;;;;;;;;;;;;17.70;92.68;100591.72;1620190;86;21986;-74
2022/08/23 06:53:53;;;;;;;;;;;;;;;17.75;92.71;100588.39;1593134;88;20514;-74
2022/08/23 06:56:19;;;;;;;;;;;;;;;17.77;92.67;100590.34;1587758;89;20164;-74
2022/08/23 06:58:45;;;;;;;;;;;;;;;17.77;92.65;100592.53;1629377;86;20539;-74
2022/08/23 07:01:14;;;;;;;;;;;;;;;17.79;92.64;100586.94;1624346;87;20262;-74
2022/08/23 07:03:40;;;;;;;;;;;;;;;17.83;92.65;100587.66;1611804;88;21326;-74
2022/08/23 07:06:06;;;;;;;;;;;;;;;17.88;92.64;100585.64;1622914;87;20284;-74
2022/08/23 07:08:32;;;;;;;;;;;;;;;17.93;92.62;100594.78;1619855;87;20175;-74
2022/08/23 07:10:58;;;;;;;;;;;;;;;17.99;92.58;100595.78;1630018;87;20858;-74
2022/08/23 07:13:24;;;;;;;;;;;;;;;18.01;92.59;100599.11;1630927;87;20180;-74
2022/08/23 07:15:50;;;;;;;;;;;;;;;18.01;92.56;100604.52;1625667;87;21343;-74
2022/08/23 07:18:16;;;;;;;;;;;;;;;18.06;92.54;100596.59;1609183;87;20196;-74
2022/08/23 07:20:42;;;;;;;;;;;;;;;18.08;92.53;100599.92;1630225;87;20262;-74
2022/08/23 07:23:09;;;;;;;;;;;;;;;18.12;92.52;100597.07;1610626;87;20185;-75
2022/08/23 07:25:34;;;;;;;;;;;;;;;18.13;92.50;100600.09;1620767;87;20210;-74
2022/08/23 07:28:00;;;;;;;;;;;;;;;18.11;92.43;100603.54;1619546;87;22928;-74
2022/08/23 07:30:26;;;;;;;;;;;;;;;18.08;92.39;100595.04;1628400;85;20281;-74
2022/08/23 07:32:52;;;;;;;;;;;;;;;18.07;92.41;100595.55;1622957;87;20738;-74
2022/08/23 07:35:18;;;;;;;;;;;;;;;18.06;92.35;100597.94;1616773;87;20256;-74
2022/08/23 07:37:44;;;;;;;;;;;;;;;18.08;92.31;100592.34;1612401;87;20537;-74
2022/08/23 07:40:10;;;;;;;;;;;;;;;18.08;92.27;100596.39;1622181;87;21988;-73
2022/08/23 07:42:36;;;;;;;;;;;;;;;18.06;92.26;100592.54;1611243;87;20191;-73
2022/08/23 07:45:03;;;;;;;;;;;;;;;18.09;92.23;100594.80;1613474;87;20217;-73
2022/08/23 07:47:29;;;;;;;;;;;;;;;18.11;92.25;100594.09;1622161;87;20194;-73
2022/08/23 07:49:55;;;;;;;;;;;;;;;18.15;92.25;100596.67;1627638;87;20246;-75
2022/08/23 07:52:22;;;;;;;;;;;;;;;18.19;92.20;100607.33;1618976;87;21379;-75
2022/08/23 07:54:47;;;;;;;;;;;;;;;18.22;92.15;100610.97;1623152;87;20209;-75
2022/08/23 07:57:13;;;;;;;;;;;;;;;18.23;92.12;100618.00;1606954;87;20260;-75
2022/08/23 07:59:39;;;;;;;;;;;;;;;18.25;92.12;100614.59;1619660;87;20254;-75
2022/08/23 08:02:05;;;;;;;;;;;;;;;18.30;92.14;100615.27;1618944;87;20193;-75
2022/08/23 08:04:31;;;;;;;;;;;;;;;18.36;92.13;100613.08;1616296;87;21951;-75
2022/08/23 08:06:59;;;;;;;;;;;;;;;18.40;92.12;100608.36;1621135;87;20265;-75
2022/08/23 08:09:25;;;;;;;;;;;;;;;18.44;92.11;100610.94;1624274;87;20119;-75
2022/08/23 08:11:51;;;;;;;;;;;;;;;18.46;92.08;100610.23;1661225;85;20279;-75
2022/08/23 08:14:17;;;;;;;;;;;;;;;18.50;92.03;100615.19;1657708;85;20227;-75
2022/08/23 08:16:45;;;;;;;;;;;;;;;18.52;92.02;100617.17;1663706;85;21327;-75
2022/08/23 08:19:11;;;;;;;;;;;;;;;18.53;92.00;100617.48;1650541;85;20207;-74
2022/08/23 08:21:38;;;;;;;;;;;;;;;18.51;91.97;100621.73;1615943;87;20171;-74
2022/08/23 08:24:05;;;;;;;;;;;;;;;18.54;91.96;100625.91;1619097;87;20167;-74
2022/08/23 08:26:31;;;;;;;;;;;;;;;18.57;91.95;100632.22;1625800;87;20175;-74
2022/08/23 08:28:57;;;;;;;;;;;;;;;18.57;91.89;100628.17;1624961;87;21528;-74
2022/08/23 08:31:23;;;;;;;;;;;;;;;18.56;91.85;100633.26;1619893;87;20214;-74
2022/08/23 08:33:49;;;;;;;;;;;;;;;18.60;91.87;100634.48;1618607;87;21012;-75
2022/08/23 08:36:36;;;;;;;;;;;;;;;18.61;91.82;100632.94;1625073;86;20179;-75
2022/08/23 08:39:04;;;;;;;;;;;;;;;18.61;91.79;100636.16;1624559;88;20188;-74
2022/08/23 08:41:40;;;;;;;;;;;;;;;18.61;91.77;100636.16;1628742;86;21479;-74
2022/08/23 08:44:15;;;;;;;;;;;;;;;18.61;91.73;100637.50;1627339;88;20463;-74
2022/08/23 08:46:49;;;;;;;;;;;;;;;18.64;91.76;100642.47;1626330;86;20602;-74
2022/08/23 08:49:31;;;;;;;;;;;;;;;18.63;91.74;100638.10;1621412;87;20612;-74
2022/08/23 08:52:07;;;;;;;;;;;;;;;18.66;91.72;100645.77;1628072;86;20498;-74
2022/08/23 08:54:33;;;;;;;;;;;;;;;18.66;91.72;100641.20;1629753;86;21381;-74
2022/08/23 08:57:00;;;;;;;;;;;;;;;18.69;91.69;100652.09;1631847;86;20207;-75
2022/08/23 08:59:28;;;;;;;;;;;;;;;18.70;91.72;100651.88;1624870;86;20148;-75
2022/08/23 09:01:54;;;;;;;;;;;;;;;18.70;91.68;100657.80;1626454;86;20164;-74
2022/08/23 09:04:21;;;;;;;;;;;;;;;18.67;91.66;100657.73;1590812;88;20259;-75
2022/08/23 09:07:08;;;;;;;;;;;;;;;18.66;91.67;100664.16;1622710;87;22131;-75
2022/08/23 09:09:50;;;;;;;;;;;;;;;18.65;91.66;100657.61;1624879;86;20260;-75
2022/08/23 09:12:25;;;;;;;;;;;;;;;18.66;91.66;100664.68;1588327;88;20187;-76
2022/08/23 09:14:55;;;;;;;;;;;;;;;18.69;91.67;100660.19;1625736;88;20540;-76
2022/08/23 09:17:44;;;;;;;;;;;;;;;18.72;91.67;100659.75;1631577;87;20465;-75
2022/08/23 09:20:12;;;;;;;;;;;;;;;18.73;91.66;100657.37;1629321;87;21502;-75
2022/08/23 09:22:40;;;;;;;;;;;;;;;18.78;91.68;100658.91;1624124;87;20224;-75
2022/08/23 09:25:10;;;;;;;;;;;;;;;18.82;91.70;100652.03;1629666;87;20140;-76
2022/08/23 09:27:37;;;;;;;;;;;;;;;18.87;91.70;100655.73;1628658;88;20903;-75
2022/08/23 09:30:04;;;;;;;;;;;;;;;18.96;91.74;100656.30;1624337;87;20128;-75
2022/08/23 09:32:37;;;;;;;;;;;;;;;19.02;91.73;100651.38;1646128;86;22232;-75
2022/08/23 09:35:23;;;;;;;;;;;;;;;19.08;91.73;100656.41;1655723;85;20178;-75
2022/08/23 09:37:58;;;;;;;;;;;;;;;19.10;91.71;100655.69;1623294;86;20424;-75
2022/08/23 09:40:38;;;;;;;;;;;;;;;19.13;91.70;100653.38;1657582;85;20189;-75
2022/08/23 09:43:08;;;;;;;;;;;;;;;19.22;91.75;100651.21;1658701;85;20212;-75
2022/08/23 09:45:35;;;;;;;;;;;;;;;19.27;91.75;100652.23;1655526;85;22119;-75
2022/08/23 09:48:03;;;;;;;;;;;;;;;19.30;91.73;100657.19;1670301;85;20791;-75
2022/08/23 09:50:32;;;;;;;;;;;;;;;19.30;91.71;100649.59;1655416;85;20172;-76
2022/08/23 09:53:03;;;;;;;;;;;;;;;19.30;91.67;100659.89;1658766;85;20185;-76
2022/08/23 09:55:37;;;;;;;;;;;;;;;19.28;91.66;100657.91;1659096;85;20205;-75
2022/08/23 09:58:39;;;;;;;;;;;;;;;19.23;91.64;100653.71;1633798;86;21431;-75
2022/08/23 10:01:17;;;;;;;;;;;;;;;19.26;91.69;100650.56;1654875;85;20935;-75
2022/08/23 10:03:43;;;;;;;;;;;;;;;19.26;91.68;100647.86;1630417;86;20608;-75
2022/08/23 10:06:11;;;;;;;;;;;;;;;19.25;91.64;100648.06;1624986;86;20281;-75
2022/08/23 10:08:40;;;;;;;;;;;;;;;19.19;91.64;100647.08;1644580;86;20158;-75
2022/08/23 10:11:17;;;;;;;;;;;;;;;19.16;91.66;100646.17;1628047;86;21562;-80
2022/08/23 10:13:43;;;;;;;;;;;;;;;19.17;91.65;100643.78;1633136;86;20178;-76
2022/08/23 10:16:25;;;;;;;;;;;;;;;19.13;91.64;100647.13;1634982;87;20412;-77
2022/08/23 10:18:54;;;;;;;;;;;;;;;19.08;91.64;100644.25;1633766;86;20165;-78
2022/08/23 10:21:41;;;;;;;;;;;;;;;19.07;91.66;100645.31;1634500;86;20460;-78
2022/08/23 10:24:16;;;;;;;;;;;;;;;19.10;91.67;100652.47;1646712;86;21910;-78
2022/08/23 10:29:35;;;;;;;;;;;;;;;19.10;91.66;100651.11;1645475;86;20446;-78
2022/08/23 10:29:39;;;;;;;;;;;;;;;19.09;91.65;100657.56;1635700;85;20197;-78
2022/08/23 10:32:18;;;;;;;;;;;;;;;19.04;91.64;100650.61;1649371;85;20179;-78
2022/08/23 10:35:00;;;;;;;;;;;;;;;19.02;91.66;100655.42;1636319;86;20183;-78
2022/08/23 10:37:36;;;;;;;;;;;;;;;19.02;91.71;100654.08;1642914;86;21525;-77
2022/08/23 10:40:06;;;;;;;;;;;;;;;19.02;91.69;100650.53;1650556;86;20521;-77
2022/08/23 10:42:55;;;;;;;;;;;;;;;19.02;91.67;100650.53;1643457;85;20455;-76
2022/08/23 10:45:24;;;;;;;;;;;;;;;19.01;91.64;100652.41;1646923;86;20414;-77
2022/08/23 10:48:28;;;;;;;;;;;;;;;18.99;91.61;100647.75;1646588;85;20219;-77
2022/08/23 10:50:57;;;;;;;;;;;;;;;19.01;91.67;100655.11;1630783;85;21562;-78
2022/08/23 10:53:36;;;;;;;;;;;;;;;19.00;91.66;100664.26;1639454;85;20416;-78
2022/08/23 10:56:03;;;;;;;;;;;;;;;18.99;91.69;100665.33;1629217;86;20352;-78
2022/08/23 10:58:33;;;;;;;;;;;;;;;18.99;91.73;100653.68;1639607;85;21030;-77
2022/08/23 11:00:59;;;;;;;;;;;;;;;18.97;91.74;100663.34;1640028;85;20238;-77
2022/08/23 11:03:41;;;;;;;;;;;;;;;18.94;91.77;100661.08;1661020;85;21549;-77
2022/08/23 11:06:38;;;;;;;;;;;;;;;18.95;91.84;100664.10;1652754;85;20171;-77
2022/08/23 11:09:10;;;;;;;;;;;;;;;18.94;91.88;100670.02;1650831;85;20190;-78
2022/08/23 11:11:54;;;;;;;;;;;;;;;18.96;91.95;100667.92;1649745;85;20174;-78
2022/08/23 11:14:37;;;;;;;;;;;;;;;18.99;92.01;100668.03;1630338;85;20564;-78
2022/08/23 11:17:13;;;;;;;;;;;;;;;19.04;92.10;100664.13;1649326;85;21683;-77
2022/08/23 11:19:57;;;;;;;;;;;;;;;19.07;92.10;100667.74;1643174;85;20530;-76
2022/08/23 11:22:28;;;;;;;;;;;;;;;19.10;92.16;100664.63;1645000;85;20667;-77
2022/08/23 11:24:58;;;;;;;;;;;;;;;19.14;92.23;100664.47;1649598;85;20168;-77
2022/08/23 11:27:28;;;;;;;;;;;;;;;19.14;92.23;100668.53;1660843;85;20609;-77
2022/08/23 11:29:54;;;;;;;;;;;;;;;19.09;92.22;100664.31;1645645;85;21595;-77
2022/08/23 11:32:33;;;;;;;;;;;;;;;19.08;92.25;100664.00;1632073;85;20963;-77
2022/08/23 11:35:07;;;;;;;;;;;;;;;19.07;92.29;100665.05;1627031;87;20196;-76
2022/08/23 11:37:55;;;;;;;;;;;;;;;19.07;92.33;100663.69;1619249;87;20235;-77
2022/08/23 11:40:43;;;;;;;;;;;;;;;19.07;92.37;100660.98;1620347;87;20426;-78
2022/08/23 11:43:12;;;;;;;;;;;;;;;19.11;92.46;100660.86;1619309;87;21482;-78
2022/08/23 11:45:45;;;;;;;;;;;;;;;19.14;92.50;100667.17;1596620;87;20163;-78
2022/08/23 11:48:30;;;;;;;;;;;;;;;19.19;92.55;100657.89;1624258;86;20188;-78
2022/08/23 11:51:31;;;;;;;;;;;;;;;19.22;92.57;100652.05;1614243;87;20190;-78
2022/08/23 11:54:23;;;;;;;;;;;;;;;19.27;92.64;100657.63;1618014;87;20163;-78
2022/08/23 11:57:05;;;;;;;;;;;;;;;19.28;92.64;100651.16;1619165;87;22118;-78
2022/08/23 11:59:38;;;;;;;;;;;;;;;19.32;92.73;100657.78;1623642;87;20438;-78
2022/08/23 12:02:30;;;;;;;;;;;;;;;19.35;92.75;100655.98;1618628;87;20155;-78
2022/08/23 12:04:56;;;;;;;;;;;;;;;19.38;92.81;100662.85;1617768;87;20917;-78
2022/08/23 12:07:51;;;;;;;;;;;;;;;19.41;92.88;100661.92;1642606;85;20518;-78
2022/08/23 12:10:42;;;;;;;;;;;;;;;19.44;92.88;100663.34;1620262;88;21726;-78
2022/08/23 12:13:21;;;;;;;;;;;;;;;19.44;92.95;100666.88;1658998;85;20205;-78
2022/08/23 12:16:12;;;;;;;;;;;;;;;19.44;92.99;100661.47;1660837;85;20228;-78
2022/08/23 12:18:48;;;;;;;;;;;;;;;19.48;93.04;100666.44;1650767;85;21064;-78
2022/08/23 12:21:22;;;;;;;;;;;;;;;19.52;93.10;100676.60;1673544;85;20225;-78
2022/08/23 12:23:54;;;;;;;;;;;;;;;19.53;93.13;100665.27;1657273;85;21724;-79
2022/08/23 12:26:39;;;;;;;;;;;;;;;19.55;93.18;100664.50;1618173;87;20191;-78
2022/08/23 12:29:25;;;;;;;;;;;;;;;19.57;93.20;100673.21;1652914;85;20425;-79
2022/08/23 12:32:26;;;;;;;;;;;;;;;19.60;93.25;100674.14;1671298;84;20498;-79
2022/08/23 12:35:13;;;;;;;;;;;;;;;19.61;93.29;100682.55;1708359;83;20160;-79
2022/08/23 12:37:48;;;;;;;;;;;;;;;19.60;93.29;100680.91;1702959;83;21549;-79
2022/08/23 12:40:17;;;;;;;;;;;;;;;19.63;93.38;100678.59;1697338;83;20663;-79
2022/08/23 12:42:43;;;;;;;;;;;;;;;19.63;93.37;100689.41;1694134;83;20177;-78
2022/08/23 12:45:21;;;;;;;;;;;;;;;19.67;93.42;100681.65;1697144;83;20316;-78
2022/08/23 12:47:59;;;;;;;;;;;;;;;19.68;93.43;100685.50;1691397;83;20341;-79
2022/08/23 12:50:28;;;;;;;;;;;;;;;19.70;93.44;100682.58;1696322;83;21455;-79
2022/08/23 12:52:57;;;;;;;;;;;;;;;19.72;93.46;100679.12;1701941;83;20140;-79
2022/08/23 12:55:23;;;;;;;;;;;;;;;19.73;93.47;100674.02;1688736;83;20163;-79
2022/08/23 12:57:53;;;;;;;;;;;;;;;19.76;93.53;100674.92;1696979;83;20811;-79